createdAt,value
2022-11-15T00:00:52.754Z,7.95
2022-11-15T00:03:22.033Z,7.96
2022-11-15T00:05:48.749Z,7.91
2022-11-15T00:08:15.424Z,7.88
2022-11-15T00:10:41.912Z,7.92
2022-11-15T00:13:10.641Z,7.92
2022-11-15T00:15:38.471Z,7.96
2022-11-15T00:18:06.372Z,7.95
2022-11-15T00:20:34.846Z,7.98
2022-11-15T00:23:01.151Z,7.98
2022-11-15T00:25:28.110Z,8.11
2022-11-15T00:27:59.139Z,8.20
2022-11-15T00:30:25.806Z,8.31
2022-11-15T00:32:52.216Z,8.33
2022-11-15T00:35:19.765Z,8.30
2022-11-15T00:37:47.394Z,8.31
2022-11-15T00:40:14.015Z,8.34
2022-11-15T00:42:40.906Z,8.41
2022-11-15T00:45:07.842Z,8.43
2022-11-15T00:47:34.112Z,8.52
2022-11-15T00:50:00.445Z,8.61
2022-11-15T00:52:26.743Z,8.62
2022-11-15T00:54:53.222Z,8.63
2022-11-15T00:57:19.514Z,8.59
2022-11-15T00:59:45.816Z,8.52
2022-11-15T01:02:12.092Z,8.60
2022-11-15T01:07:29.375Z,8.61
2022-11-15T01:09:55.713Z,8.68
2022-11-15T01:12:22.028Z,8.69
2022-11-15T01:14:48.323Z,8.66
2022-11-15T01:17:14.735Z,8.66
2022-11-15T01:19:41.037Z,8.63
2022-11-15T01:22:07.350Z,8.60
2022-11-15T01:24:33.741Z,8.44
2022-11-15T01:27:00.047Z,8.51
2022-11-15T01:29:26.479Z,8.45
2022-11-15T01:31:54.238Z,8.43
2022-11-15T01:34:20.604Z,8.35
2022-11-15T01:36:47.666Z,8.24
2022-11-15T01:39:14.146Z,8.23
2022-11-15T01:41:40.429Z,8.22
2022-11-15T01:44:31.923Z,8.18
2022-11-15T01:47:02.755Z,8.16
2022-11-15T01:49:33.267Z,8.16
2022-11-15T01:52:02.521Z,8.09
2022-11-15T01:54:29.401Z,8.09
2022-11-15T01:57:02.736Z,8.04
2022-11-15T01:59:29.309Z,8.07
2022-11-15T02:01:56.138Z,8.04
2022-11-15T02:04:32.607Z,8.07
2022-11-15T02:07:00.938Z,8.04
2022-11-15T02:09:27.327Z,7.99
2022-11-15T02:11:56.751Z,8.01
2022-11-15T02:14:26.230Z,7.99
2022-11-15T02:17:09.731Z,7.99
2022-11-15T02:19:56.810Z,7.96
2022-11-15T02:22:40.125Z,7.89
2022-11-15T02:25:34.846Z,7.87
2022-11-15T02:28:19.345Z,7.85
2022-11-15T02:30:48.226Z,7.84
2022-11-15T02:33:37.357Z,7.79
2022-11-15T02:36:23.515Z,7.84
2022-11-15T02:38:58.141Z,7.83
2022-11-15T02:41:45.198Z,8.08
2022-11-15T02:44:15.506Z,8.15
2022-11-15T02:47:07.396Z,8.26
2022-11-15T02:49:36.077Z,8.29
2022-11-15T02:52:02.905Z,8.36
2022-11-15T02:54:34.300Z,8.50
2022-11-15T02:57:05.589Z,8.54
2022-11-15T02:59:57.647Z,8.58
2022-11-15T03:02:57.841Z,8.56
2022-11-15T03:05:54.183Z,8.49
2022-11-15T03:08:27.171Z,8.53
2022-11-15T03:11:11.314Z,8.52
2022-11-15T03:13:40.525Z,8.56
2022-11-15T03:16:17.832Z,8.54
2022-11-15T03:18:53.640Z,8.56
2022-11-15T03:21:22.767Z,8.44
2022-11-15T03:23:51.732Z,8.53
2022-11-15T03:26:22.182Z,8.49
2022-11-15T03:28:54.102Z,8.54
2022-11-15T03:31:43.432Z,8.52
2022-11-15T03:34:35.070Z,8.52
2022-11-15T03:37:02.585Z,8.53
2022-11-15T03:39:29.999Z,8.57
2022-11-15T03:42:12.433Z,8.56
2022-11-15T03:44:48.898Z,8.56
2022-11-15T03:47:24.950Z,8.55
2022-11-15T03:49:56.520Z,8.52
2022-11-15T03:52:23.216Z,8.51
2022-11-15T03:54:55.761Z,8.48
2022-11-15T03:57:22.240Z,8.47
2022-11-15T03:59:48.681Z,8.48
2022-11-15T04:02:15.179Z,8.44
2022-11-15T04:04:41.487Z,8.42
2022-11-15T04:07:07.865Z,8.48
2022-11-15T04:09:34.514Z,8.50
2022-11-15T04:12:00.798Z,8.61
2022-11-15T04:14:27.110Z,8.64
2022-11-15T04:16:53.412Z,8.65
2022-11-15T04:19:38.390Z,8.70
2022-11-15T04:22:23.019Z,8.71
2022-11-15T04:24:49.360Z,8.86
2022-11-15T04:27:15.693Z,8.89
2022-11-15T04:29:42.572Z,9.00
2022-11-15T04:32:08.942Z,8.92
2022-11-15T04:34:36.082Z,8.97
2022-11-15T04:37:14.815Z,8.98
2022-11-15T04:39:41.938Z,9.02
2022-11-15T04:42:09.097Z,9.00
2022-11-15T04:44:35.763Z,8.97
2022-11-15T04:47:02.712Z,8.98
2022-11-15T04:49:29.069Z,9.02
2022-11-15T04:51:55.360Z,9.17
2022-11-15T04:54:21.667Z,9.21
2022-11-15T04:56:48.013Z,9.23
2022-11-15T04:59:14.325Z,9.18
2022-11-15T05:01:44.723Z,9.13
2022-11-15T05:04:20.509Z,9.28
2022-11-15T05:06:48.500Z,9.24
2022-11-15T05:09:15.076Z,9.37
2022-11-15T05:11:42.193Z,9.34
2022-11-15T05:14:08.550Z,9.34
2022-11-15T05:16:35.086Z,9.29
2022-11-15T05:19:01.424Z,9.29
2022-11-15T05:21:27.928Z,9.28
2022-11-15T05:23:54.220Z,9.24
2022-11-15T05:26:20.561Z,9.23
2022-11-15T05:28:46.867Z,9.23
2022-11-15T05:31:16.299Z,9.22
2022-11-15T05:33:44.557Z,9.21
2022-11-15T05:36:14.968Z,9.24
2022-11-15T05:38:41.733Z,9.26
2022-11-15T05:41:08.363Z,9.24
2022-11-15T05:43:38.364Z,9.25
2022-11-15T05:46:05.679Z,9.27
2022-11-15T05:48:35.025Z,9.26
2022-11-15T05:51:02.831Z,9.22
2022-11-15T05:53:29.464Z,9.18
2022-11-15T05:55:55.971Z,9.19
2022-11-15T05:58:22.572Z,9.25
2022-11-15T06:00:49.279Z,9.18
2022-11-15T06:03:15.596Z,9.21
2022-11-15T06:05:41.906Z,9.22
2022-11-15T06:08:08.205Z,9.28
2022-11-15T06:10:34.553Z,9.23
2022-11-15T06:13:03.181Z,9.22
2022-11-15T06:15:29.914Z,9.16
2022-11-15T06:17:59.933Z,9.22
2022-11-15T06:20:28.042Z,9.20
2022-11-15T06:22:59.114Z,9.19
2022-11-15T06:25:26.022Z,9.12
2022-11-15T06:27:53.781Z,9.06
2022-11-15T06:30:20.716Z,9.06
2022-11-15T06:32:47.095Z,9.09
2022-11-15T06:35:14.082Z,9.01
2022-11-15T06:37:40.819Z,8.88
2022-11-15T06:40:08.879Z,8.93
2022-11-15T06:42:35.327Z,8.94
2022-11-15T06:45:02.062Z,8.89
2022-11-15T06:47:28.395Z,8.97
2022-11-15T06:49:54.743Z,8.92
2022-11-15T06:52:22.510Z,8.88
2022-11-15T06:54:48.895Z,8.91
2022-11-15T06:57:15.244Z,8.91
2022-11-15T06:59:41.623Z,8.89
2022-11-15T07:02:14.057Z,8.93
2022-11-15T07:04:40.395Z,8.84
2022-11-15T07:07:06.891Z,8.94
2022-11-15T07:09:33.263Z,8.97
2022-11-15T07:12:04.656Z,8.93
2022-11-15T07:14:33.719Z,8.97
2022-11-15T07:17:00.110Z,8.98
2022-11-15T07:19:26.559Z,8.94
2022-11-15T07:21:52.829Z,9.02
2022-11-15T07:24:19.119Z,9.00
2022-11-15T07:26:45.420Z,9.07
2022-11-15T07:29:11.739Z,9.08
2022-11-15T07:31:38.897Z,9.11
2022-11-15T07:34:05.227Z,9.09
2022-11-15T07:36:31.553Z,9.09
2022-11-15T07:38:57.876Z,9.13
2022-11-15T07:41:24.175Z,9.10
2022-11-15T07:43:53.483Z,9.13
2022-11-15T07:46:19.802Z,9.15
2022-11-15T07:48:46.100Z,9.10
2022-11-15T07:51:14.905Z,9.21
2022-11-15T07:53:42.245Z,9.22
2022-11-15T07:56:09.237Z,9.23
2022-11-15T07:58:35.934Z,9.33
2022-11-15T08:01:10.446Z,9.36
2022-11-15T08:03:37.559Z,9.43
2022-11-15T08:06:05.113Z,9.49
2022-11-15T08:08:31.510Z,9.53
2022-11-15T08:11:01.568Z,9.67
2022-11-15T08:13:28.239Z,9.67
2022-11-15T08:16:01.961Z,9.74
2022-11-15T08:18:28.427Z,9.72
2022-11-15T08:20:54.752Z,9.73
2022-11-15T08:23:21.098Z,9.74
2022-11-15T08:25:47.415Z,9.71
2022-11-15T08:28:13.795Z,9.73
2022-11-15T08:30:43.435Z,9.68
2022-11-15T08:33:14.777Z,9.71
2022-11-15T08:35:43.008Z,9.73
2022-11-15T08:38:09.578Z,9.72
2022-11-15T08:40:36.908Z,9.70
2022-11-15T08:43:03.804Z,9.75
2022-11-15T08:45:31.344Z,9.78
2022-11-15T08:47:57.722Z,9.87
2022-11-15T08:50:24.224Z,9.93
2022-11-15T08:52:50.585Z,9.95
2022-11-15T08:55:17.790Z,9.97
2022-11-15T08:57:44.518Z,10.01
2022-11-15T09:00:12.411Z,10.03
2022-11-15T09:02:41.827Z,10.02
2022-11-15T09:05:09.041Z,10.09
2022-11-15T09:07:35.654Z,10.05
2022-11-15T09:10:02.116Z,10.05
2022-11-15T09:12:28.669Z,10.15
2022-11-15T09:14:55.709Z,10.07
2022-11-15T09:17:24.945Z,10.11
2022-11-15T09:19:51.874Z,10.14
2022-11-15T09:22:18.760Z,10.22
2022-11-15T09:24:45.035Z,10.27
2022-11-15T09:27:11.418Z,10.29
2022-11-15T09:29:37.740Z,10.31
2022-11-15T09:32:04.367Z,10.33
2022-11-15T09:34:30.658Z,10.32
2022-11-15T09:36:57.046Z,10.38
2022-11-15T09:39:23.391Z,10.39
2022-11-15T09:42:00.649Z,10.41
2022-11-15T09:44:39.115Z,10.47
2022-11-15T09:47:39.357Z,10.52
2022-11-15T09:50:16.009Z,10.56
2022-11-15T09:52:46.166Z,10.52
2022-11-15T09:55:15.938Z,10.58
2022-11-15T09:57:55.452Z,10.59
2022-11-15T10:00:46.438Z,10.61
2022-11-15T10:03:42.804Z,10.62
2022-11-15T10:06:22.684Z,10.58
2022-11-15T10:09:30.086Z,10.60
2022-11-15T10:11:57.215Z,10.61
2022-11-15T10:14:28.070Z,10.60
2022-11-15T10:17:51.552Z,10.62
2022-11-15T10:20:22.517Z,10.53
2022-11-15T10:22:52.403Z,10.58
2022-11-15T10:25:20.576Z,10.61
2022-11-15T10:28:15.278Z,10.56
2022-11-15T10:30:47.856Z,10.57
2022-11-15T10:33:26.461Z,10.55
2022-11-15T10:36:19.352Z,10.55
2022-11-15T10:38:48.786Z,10.52
2022-11-15T10:41:17.212Z,10.48
2022-11-15T10:43:44.050Z,10.47
2022-11-15T10:46:45.737Z,10.43
2022-11-15T10:49:18.425Z,10.45
2022-11-15T10:51:49.888Z,10.46
2022-11-15T10:54:26.797Z,10.45
2022-11-15T10:56:55.523Z,10.51
2022-11-15T10:59:28.743Z,10.54
2022-11-15T11:01:55.743Z,10.55
2022-11-15T11:04:22.457Z,10.58
2022-11-15T11:06:53.173Z,10.66
2022-11-15T11:09:43.155Z,10.72
2022-11-15T11:12:13.097Z,10.73
2022-11-15T11:14:40.511Z,10.76
2022-11-15T11:17:52.439Z,10.88
2022-11-15T11:20:28.260Z,10.94
2022-11-15T11:23:05.263Z,10.94
2022-11-15T11:25:39.264Z,10.99
2022-11-15T11:28:40.796Z,11.02
2022-11-15T11:31:07.116Z,10.96
2022-11-15T11:33:58.274Z,11.00
2022-11-15T11:36:39.392Z,11.02
2022-11-15T11:39:38.697Z,11.04
2022-11-15T11:42:10.475Z,11.04
2022-11-15T11:45:02.067Z,11.09
2022-11-15T11:47:35.882Z,11.12
2022-11-15T11:50:19.336Z,11.24
2022-11-15T11:53:09.252Z,11.32
2022-11-15T11:55:41.002Z,11.32
2022-11-15T11:58:18.479Z,11.30
2022-11-15T12:00:52.876Z,11.42
2022-11-15T12:03:42.897Z,11.44
2022-11-15T12:06:28.630Z,11.43
2022-11-15T12:09:03.660Z,11.42
2022-11-15T12:11:48.738Z,11.51
2022-11-15T12:14:28.223Z,11.54
2022-11-15T12:16:54.704Z,11.65
2022-11-15T12:19:21.051Z,11.79
2022-11-15T12:21:55.393Z,11.82
2022-11-15T12:24:32.559Z,11.83
2022-11-15T12:27:24.918Z,11.82
2022-11-15T12:29:57.078Z,11.75
2022-11-15T12:32:31.435Z,11.75
2022-11-15T12:34:59.466Z,11.78
2022-11-15T12:37:49.171Z,11.77
2022-11-15T12:40:24.717Z,11.78
2022-11-15T12:43:03.909Z,11.81
2022-11-15T12:45:33.780Z,11.81
2022-11-15T12:48:18.434Z,11.89
2022-11-15T12:50:58.920Z,11.94
2022-11-15T12:53:28.621Z,11.98
2022-11-15T12:56:04.192Z,12.02
2022-11-15T12:59:08.942Z,12.03
2022-11-15T13:01:55.247Z,11.98
2022-11-15T13:04:25.093Z,11.96
2022-11-15T13:06:55.614Z,11.97
2022-11-15T13:09:37.218Z,12.01
2022-11-15T13:12:08.428Z,12.04
2022-11-15T13:14:37.671Z,12.07
2022-11-15T13:17:22.598Z,12.10
2022-11-15T13:20:07.069Z,12.12
2022-11-15T13:22:52.322Z,12.06
2022-11-15T13:25:20.253Z,12.10
2022-11-15T13:27:51.073Z,12.15
2022-11-15T13:30:22.518Z,12.18
2022-11-15T13:32:49.727Z,12.19
2022-11-15T13:35:22.956Z,12.24
2022-11-15T13:37:50.023Z,12.25
2022-11-15T13:40:28.209Z,12.26
2022-11-15T13:42:54.898Z,12.25
2022-11-15T13:45:21.554Z,12.31
2022-11-15T13:47:58.786Z,12.29
2022-11-15T13:50:30.547Z,12.35
2022-11-15T13:53:02.422Z,12.30
2022-11-15T13:55:31.293Z,12.31
2022-11-15T13:57:59.891Z,12.28
2022-11-15T14:00:44.187Z,12.29
2022-11-15T14:03:22.131Z,12.31
2022-11-15T14:06:12.848Z,12.32
2022-11-15T14:08:58.187Z,12.30
2022-11-15T14:11:26.354Z,12.28
2022-11-15T14:14:13.399Z,12.29
2022-11-15T14:16:48.009Z,12.28
2022-11-15T14:19:36.051Z,12.26
2022-11-15T14:22:13.435Z,12.27
2022-11-15T14:24:41.526Z,12.23
2022-11-15T14:27:25.365Z,12.25
2022-11-15T14:29:52.042Z,12.24
2022-11-15T14:32:20.284Z,12.26
2022-11-15T14:34:47.330Z,12.24
2022-11-15T14:37:35.582Z,12.22
2022-11-15T14:40:06.895Z,12.22
2022-11-15T14:42:33.563Z,12.25
2022-11-15T14:44:59.920Z,12.23
2022-11-15T14:47:26.240Z,12.24
2022-11-15T14:49:52.600Z,12.17
2022-11-15T14:52:31.801Z,12.14
2022-11-15T14:55:00.133Z,12.16
2022-11-15T14:57:26.512Z,12.25
2022-11-15T14:59:53.736Z,12.23
2022-11-15T15:02:25.852Z,12.15
2022-11-15T15:04:52.654Z,12.14
2022-11-15T15:07:19.155Z,12.13
2022-11-15T15:09:46.443Z,12.11
2022-11-15T15:12:23.753Z,11.98
2022-11-15T15:14:51.530Z,12.01
2022-11-15T15:17:18.085Z,11.96
2022-11-15T15:19:44.455Z,11.92
2022-11-15T15:22:19.711Z,11.89
2022-11-15T15:24:46.813Z,11.74
2022-11-15T15:27:13.682Z,11.78
2022-11-15T15:29:43.516Z,11.73
2022-11-15T15:32:11.243Z,11.64
2022-11-15T15:34:37.599Z,11.57
2022-11-15T15:37:26.713Z,11.65
2022-11-15T15:39:54.915Z,11.58
2022-11-15T15:42:22.107Z,11.55
2022-11-15T15:44:49.620Z,11.51
2022-11-15T15:47:23.437Z,11.50
2022-11-15T15:49:51.350Z,11.47
2022-11-15T15:52:18.618Z,11.45
2022-11-15T15:54:45.140Z,11.43
2022-11-15T15:57:15.018Z,11.42
2022-11-15T15:59:41.531Z,11.38
2022-11-15T16:02:12.349Z,11.35
2022-11-15T16:04:38.905Z,11.39
2022-11-15T16:07:05.350Z,11.33
2022-11-15T16:09:50.475Z,11.30
2022-11-15T16:12:17.500Z,11.30
2022-11-15T16:14:43.800Z,11.27
2022-11-15T16:17:19.116Z,11.22
2022-11-15T16:19:45.403Z,11.19
2022-11-15T16:22:11.766Z,11.16
2022-11-15T16:24:38.056Z,11.11
2022-11-15T16:27:04.616Z,11.04
2022-11-15T16:29:31.000Z,11.02
2022-11-15T16:31:57.338Z,10.98
2022-11-15T16:34:23.658Z,10.96
2022-11-15T16:36:50.547Z,10.98
2022-11-15T16:39:19.320Z,10.92
2022-11-15T16:41:47.646Z,10.92
2022-11-15T16:44:14.846Z,10.91
2022-11-15T16:46:44.251Z,10.87
2022-11-15T16:49:15.240Z,10.86
2022-11-15T16:51:42.319Z,10.78
2022-11-15T16:54:08.657Z,10.77
2022-11-15T16:56:34.954Z,10.71
2022-11-15T16:59:01.829Z,10.79
2022-11-15T17:01:36.182Z,10.78
2022-11-15T17:04:13.121Z,10.76
2022-11-15T17:06:41.084Z,10.73
2022-11-15T17:09:12.741Z,10.66
2022-11-15T17:11:41.168Z,10.59
2022-11-15T17:14:07.501Z,10.53
2022-11-15T17:16:35.087Z,10.54
2022-11-15T17:19:01.747Z,10.50
2022-11-15T17:21:32.599Z,10.49
2022-11-15T17:24:00.393Z,10.39
2022-11-15T17:26:33.081Z,10.48
2022-11-15T17:29:01.744Z,10.46
2022-11-15T17:31:30.619Z,10.44
2022-11-15T17:33:56.994Z,10.45
2022-11-15T17:36:23.371Z,10.44
2022-11-15T17:38:55.431Z,10.50
2022-11-15T17:41:25.665Z,10.47
2022-11-15T17:43:52.034Z,10.45
2022-11-15T17:46:20.879Z,10.47
2022-11-15T17:48:48.219Z,10.44
2022-11-15T17:51:16.690Z,10.45
2022-11-15T17:53:45.771Z,10.42
2022-11-15T17:56:17.595Z,10.42
2022-11-15T17:58:51.528Z,10.41
2022-11-15T18:01:31.864Z,10.40
2022-11-15T18:04:00.675Z,10.48
2022-11-15T18:06:30.376Z,10.49
2022-11-15T18:08:57.398Z,10.52
2022-11-15T18:11:25.562Z,10.54
2022-11-15T18:13:54.842Z,10.55
2022-11-15T18:16:25.884Z,10.53
2022-11-15T18:18:53.813Z,10.54
2022-11-15T18:21:23.451Z,10.52
2022-11-15T18:23:53.825Z,10.51
2022-11-15T18:26:24.395Z,10.37
2022-11-15T18:29:01.722Z,10.45
2022-11-15T18:31:30.028Z,10.43
2022-11-15T18:33:59.197Z,10.47
2022-11-15T18:36:28.273Z,10.47
2022-11-15T18:39:02.197Z,10.43
2022-11-15T18:41:29.350Z,10.43
2022-11-15T18:44:00.721Z,10.36
2022-11-15T18:46:30.732Z,10.34
2022-11-15T18:48:59.455Z,10.36
2022-11-15T18:51:27.360Z,10.38
2022-11-15T18:53:55.479Z,10.31
2022-11-15T18:56:23.373Z,10.33
2022-11-15T18:58:52.369Z,10.33
2022-11-15T19:01:28.757Z,10.23
2022-11-15T19:03:57.165Z,10.21
2022-11-15T19:06:26.278Z,10.19
2022-11-15T19:08:54.740Z,10.16
2022-11-15T19:11:24.074Z,10.10
2022-11-15T19:14:11.270Z,10.13
2022-11-15T19:16:40.308Z,10.14
2022-11-15T19:19:10.443Z,10.10
2022-11-15T19:21:36.751Z,10.12
2022-11-15T19:24:03.379Z,10.16
2022-11-15T19:26:30.024Z,10.14
2022-11-15T19:29:00.038Z,10.18
2022-11-15T19:31:28.811Z,10.26
2022-11-15T19:33:55.996Z,10.20
2022-11-15T19:36:26.736Z,10.17
2022-11-15T19:38:54.086Z,10.14
2022-11-15T19:41:22.796Z,10.12
2022-11-15T19:43:52.590Z,10.09
2022-11-15T19:46:21.735Z,10.10
2022-11-15T19:48:48.522Z,10.08
2022-11-15T19:51:19.276Z,10.07
2022-11-15T19:53:45.738Z,10.05
2022-11-15T19:56:14.575Z,10.08
2022-11-15T19:58:41.662Z,10.15
2022-11-15T20:01:23.912Z,10.18
2022-11-15T20:03:54.333Z,10.14
2022-11-15T20:06:26.734Z,10.11
2022-11-15T20:08:53.486Z,10.14
2022-11-15T20:11:20.492Z,10.15
2022-11-15T20:13:46.954Z,10.17
2022-11-15T20:16:19.666Z,10.11
2022-11-15T20:18:47.054Z,10.05
2022-11-15T20:21:13.601Z,10.01
2022-11-15T20:23:40.506Z,9.99
2022-11-15T20:26:07.842Z,9.97
2022-11-15T20:28:36.886Z,9.99
2022-11-15T20:31:03.923Z,9.94
2022-11-15T20:33:30.315Z,9.93
2022-11-15T20:35:56.611Z,9.95
2022-11-15T20:38:23.520Z,9.94
2022-11-15T20:40:56.056Z,9.93
2022-11-15T20:43:25.267Z,9.92
2022-11-15T20:45:51.532Z,9.92
2022-11-15T20:48:17.987Z,9.94
2022-11-15T20:50:46.000Z,9.93
2022-11-15T20:53:15.132Z,9.89
2022-11-15T20:55:47.761Z,9.90
2022-11-15T20:58:15.222Z,9.91
2022-11-15T21:00:43.048Z,9.94
2022-11-15T21:03:09.547Z,9.92
2022-11-15T21:05:40.242Z,9.92
2022-11-15T21:08:08.195Z,9.88
2022-11-15T21:10:53.045Z,9.90
2022-11-15T21:13:19.969Z,9.91
2022-11-15T21:15:46.987Z,9.90
2022-11-15T21:18:13.942Z,9.87
2022-11-15T21:20:40.570Z,9.88
2022-11-15T21:23:06.985Z,9.74
2022-11-15T21:25:34.234Z,9.89
2022-11-15T21:28:00.578Z,9.87
2022-11-15T21:30:27.330Z,9.86
2022-11-15T21:32:53.621Z,9.82
2022-11-15T21:35:20.011Z,9.81
2022-11-15T21:37:47.250Z,9.81
2022-11-15T21:40:16.162Z,9.85
2022-11-15T21:42:42.426Z,9.82
2022-11-15T21:45:09.222Z,9.80
2022-11-15T21:47:35.496Z,9.79
2022-11-15T21:50:01.847Z,9.80
2022-11-15T21:52:28.202Z,9.84
2022-11-15T21:54:54.527Z,9.75
2022-11-15T21:57:21.184Z,9.88
2022-11-15T22:00:06.109Z,9.89
2022-11-15T22:02:32.375Z,9.85
2022-11-15T22:04:58.663Z,9.81
2022-11-15T22:07:25.029Z,9.83
2022-11-15T22:09:51.430Z,9.81
2022-11-15T22:12:17.782Z,9.84
2022-11-15T22:14:44.062Z,9.81
2022-11-15T22:17:10.748Z,9.80
2022-11-15T22:19:51.617Z,9.82
2022-11-15T22:22:18.937Z,9.79
2022-11-15T22:24:45.234Z,9.81
2022-11-15T22:27:11.556Z,9.81
2022-11-15T22:29:37.891Z,9.81
2022-11-15T22:32:04.546Z,9.82
2022-11-15T22:34:30.854Z,9.80
2022-11-15T22:39:43.520Z,9.82
2022-11-15T22:42:09.850Z,9.80
2022-11-15T22:44:36.170Z,9.82
2022-11-15T22:47:02.496Z,9.80
2022-11-15T22:49:28.890Z,9.80
2022-11-15T22:51:55.223Z,9.72
2022-11-15T22:54:21.587Z,9.72
2022-11-15T22:56:47.938Z,9.70
2022-11-15T22:59:14.259Z,9.65
2022-11-15T23:01:41.032Z,9.65
2022-11-15T23:04:07.423Z,9.65
2022-11-15T23:06:33.896Z,9.65
2022-11-15T23:09:00.214Z,9.66
2022-11-15T23:11:44.949Z,9.62
2022-11-15T23:14:11.265Z,9.64
2022-11-15T23:16:37.816Z,9.64
2022-11-15T23:19:06.901Z,9.60
2022-11-15T23:21:54.130Z,9.64
2022-11-15T23:24:21.522Z,9.62
2022-11-15T23:26:51.854Z,9.58
2022-11-15T23:29:20.789Z,9.60
2022-11-15T23:32:05.984Z,9.66
2022-11-15T23:34:36.116Z,9.63
2022-11-15T23:37:02.553Z,9.67
2022-11-15T23:39:28.943Z,9.72
2022-11-15T23:41:55.874Z,9.69
2022-11-15T23:44:22.282Z,9.63
2022-11-15T23:46:48.798Z,9.65
2022-11-15T23:49:15.242Z,9.60
2022-11-15T23:51:41.710Z,9.66
2022-11-15T23:54:08.229Z,9.76
2022-11-15T23:56:34.687Z,9.73
2022-11-15T23:59:01.475Z,9.78
